sensor_id;sensor_type;location;lat;lon;timestamp;P1;durP1;ratioP1;P2;durP2;ratioP2
55186;SDS011;55457;52.002;5.464;2024-02-28T00:01:32;5.32;;;2.17;;
55186;SDS011;55457;52.002;5.464;2024-02-28T00:03:57;4.70;;;2.53;;
55186;SDS011;55457;52.002;5.464;2024-02-28T00:06:22;4.47;;;2.40;;
55186;SDS011;55457;52.002;5.464;2024-02-28T00:08:48;4.70;;;2.42;;
55186;SDS011;55457;52.002;5.464;2024-02-28T00:11:15;5.15;;;2.33;;
55186;SDS011;55457;52.002;5.464;2024-02-28T00:13:41;6.47;;;1.98;;
55186;SDS011;55457;52.002;5.464;2024-02-28T00:16:06;4.47;;;2.45;;
55186;SDS011;55457;52.002;5.464;2024-02-28T00:18:32;4.30;;;2.35;;
55186;SDS011;55457;52.002;5.464;2024-02-28T00:20:57;4.18;;;2.58;;
55186;SDS011;55457;52.002;5.464;2024-02-28T00:23:23;3.58;;;2.45;;
55186;SDS011;55457;52.002;5.464;2024-02-28T00:25:49;7.97;;;2.70;;
55186;SDS011;55457;52.002;5.464;2024-02-28T00:28:14;4.00;;;2.15;;
55186;SDS011;55457;52.002;5.464;2024-02-28T00:30:40;3.72;;;1.80;;
55186;SDS011;55457;52.002;5.464;2024-02-28T00:33:06;4.78;;;2.85;;
55186;SDS011;55457;52.002;5.464;2024-02-28T00:35:31;3.33;;;2.70;;
55186;SDS011;55457;52.002;5.464;2024-02-28T00:38:00;3.20;;;2.55;;
55186;SDS011;55457;52.002;5.464;2024-02-28T00:40:26;6.47;;;2.08;;
55186;SDS011;55457;52.002;5.464;2024-02-28T00:42:52;3.58;;;2.40;;
55186;SDS011;55457;52.002;5.464;2024-02-28T00:45:18;6.47;;;2.38;;
55186;SDS011;55457;52.002;5.464;2024-02-28T00:47:43;6.53;;;2.58;;
55186;SDS011;55457;52.002;5.464;2024-02-28T00:50:09;6.03;;;2.20;;
55186;SDS011;55457;52.002;5.464;2024-02-28T00:52:34;5.13;;;2.42;;
55186;SDS011;55457;52.002;5.464;2024-02-28T00:55:00;5.40;;;3.10;;
55186;SDS011;55457;52.002;5.464;2024-02-28T00:57:25;6.63;;;2.30;;
55186;SDS011;55457;52.002;5.464;2024-02-28T00:59:50;5.18;;;2.40;;
55186;SDS011;55457;52.002;5.464;2024-02-28T01:02:16;7.88;;;2.33;;
55186;SDS011;55457;52.002;5.464;2024-02-28T01:04:41;8.73;;;3.47;;
55186;SDS011;55457;52.002;5.464;2024-02-28T01:07:07;6.00;;;2.90;;
55186;SDS011;55457;52.002;5.464;2024-02-28T01:09:32;4.30;;;2.58;;
55186;SDS011;55457;52.002;5.464;2024-02-28T01:11:57;5.45;;;2.47;;
55186;SDS011;55457;52.002;5.464;2024-02-28T01:14:23;3.47;;;2.20;;
55186;SDS011;55457;52.002;5.464;2024-02-28T01:16:48;4.80;;;2.42;;
55186;SDS011;55457;52.002;5.464;2024-02-28T01:19:15;4.22;;;2.10;;
55186;SDS011;55457;52.002;5.464;2024-02-28T01:21:41;4.20;;;3.00;;
55186;SDS011;55457;52.002;5.464;2024-02-28T01:24:06;6.38;;;2.88;;
55186;SDS011;55457;52.002;5.464;2024-02-28T01:26:32;3.70;;;2.70;;
55186;SDS011;55457;52.002;5.464;2024-02-28T01:28:57;5.43;;;2.80;;
55186;SDS011;55457;52.002;5.464;2024-02-28T01:31:23;4.03;;;2.00;;
55186;SDS011;55457;52.002;5.464;2024-02-28T01:33:48;3.67;;;2.00;;
55186;SDS011;55457;52.002;5.464;2024-02-28T01:36:13;3.45;;;2.22;;
55186;SDS011;55457;52.002;5.464;2024-02-28T01:38:39;5.53;;;2.75;;
55186;SDS011;55457;52.002;5.464;2024-02-28T01:41:04;4.80;;;2.50;;
55186;SDS011;55457;52.002;5.464;2024-02-28T01:43:30;4.50;;;2.10;;
55186;SDS011;55457;52.002;5.464;2024-02-28T01:45:56;2.80;;;1.70;;
55186;SDS011;55457;52.002;5.464;2024-02-28T01:48:22;4.55;;;2.63;;
55186;SDS011;55457;52.002;5.464;2024-02-28T01:50:47;5.35;;;2.08;;
55186;SDS011;55457;52.002;5.464;2024-02-28T01:53:12;3.05;;;1.95;;
55186;SDS011;55457;52.002;5.464;2024-02-28T01:55:39;4.55;;;2.75;;
55186;SDS011;55457;52.002;5.464;2024-02-28T01:58:05;6.78;;;2.30;;
55186;SDS011;55457;52.002;5.464;2024-02-28T02:00:34;3.53;;;2.22;;
55186;SDS011;55457;52.002;5.464;2024-02-28T02:03:01;3.25;;;2.40;;
55186;SDS011;55457;52.002;5.464;2024-02-28T02:05:26;4.13;;;2.40;;
55186;SDS011;55457;52.002;5.464;2024-02-28T02:07:52;3.90;;;2.55;;
55186;SDS011;55457;52.002;5.464;2024-02-28T02:10:20;5.18;;;2.92;;
55186;SDS011;55457;52.002;5.464;2024-02-28T02:12:45;3.60;;;2.35;;
55186;SDS011;55457;52.002;5.464;2024-02-28T02:15:10;3.47;;;2.30;;
55186;SDS011;55457;52.002;5.464;2024-02-28T02:17:36;3.67;;;2.50;;
55186;SDS011;55457;52.002;5.464;2024-02-28T02:20:01;6.65;;;2.50;;
55186;SDS011;55457;52.002;5.464;2024-02-28T02:22:27;4.40;;;2.55;;
55186;SDS011;55457;52.002;5.464;2024-02-28T02:24:58;5.75;;;2.22;;
55186;SDS011;55457;52.002;5.464;2024-02-28T02:27:24;3.70;;;2.42;;
55186;SDS011;55457;52.002;5.464;2024-02-28T02:29:51;3.35;;;2.03;;
55186;SDS011;55457;52.002;5.464;2024-02-28T02:32:16;4.45;;;2.13;;
55186;SDS011;55457;52.002;5.464;2024-02-28T02:34:41;4.22;;;2.42;;
55186;SDS011;55457;52.002;5.464;2024-02-28T02:37:07;3.55;;;1.88;;
55186;SDS011;55457;52.002;5.464;2024-02-28T02:39:33;5.40;;;2.28;;
55186;SDS011;55457;52.002;5.464;2024-02-28T02:41:59;3.72;;;2.33;;
55186;SDS011;55457;52.002;5.464;2024-02-28T02:44:24;4.50;;;2.42;;
55186;SDS011;55457;52.002;5.464;2024-02-28T02:46:49;4.95;;;1.90;;
55186;SDS011;55457;52.002;5.464;2024-02-28T02:49:15;4.50;;;2.17;;
55186;SDS011;55457;52.002;5.464;2024-02-28T02:51:43;3.33;;;2.20;;
55186;SDS011;55457;52.002;5.464;2024-02-28T02:54:08;3.13;;;2.53;;
55186;SDS011;55457;52.002;5.464;2024-02-28T02:56:33;2.60;;;1.63;;
55186;SDS011;55457;52.002;5.464;2024-02-28T02:58:59;2.75;;;1.67;;
55186;SDS011;55457;52.002;5.464;2024-02-28T03:01:24;3.97;;;2.53;;
55186;SDS011;55457;52.002;5.464;2024-02-28T03:03:49;5.65;;;2.45;;
55186;SDS011;55457;52.002;5.464;2024-02-28T03:06:15;3.13;;;1.98;;
55186;SDS011;55457;52.002;5.464;2024-02-28T03:08:40;4.55;;;2.33;;
55186;SDS011;55457;52.002;5.464;2024-02-28T03:11:05;2.58;;;1.77;;
55186;SDS011;55457;52.002;5.464;2024-02-28T03:13:33;3.92;;;2.00;;
55186;SDS011;55457;52.002;5.464;2024-02-28T03:15:59;3.33;;;1.60;;
55186;SDS011;55457;52.002;5.464;2024-02-28T03:18:24;4.60;;;2.25;;
55186;SDS011;55457;52.002;5.464;2024-02-28T03:20:49;2.65;;;1.80;;
55186;SDS011;55457;52.002;5.464;2024-02-28T03:23:15;4.10;;;2.20;;
55186;SDS011;55457;52.002;5.464;2024-02-28T03:25:40;5.30;;;2.53;;
55186;SDS011;55457;52.002;5.464;2024-02-28T03:28:05;4.05;;;2.38;;
55186;SDS011;55457;52.002;5.464;2024-02-28T03:30:30;2.92;;;1.55;;
55186;SDS011;55457;52.002;5.464;2024-02-28T03:32:56;2.55;;;1.73;;
55186;SDS011;55457;52.002;5.464;2024-02-28T03:35:21;4.97;;;2.00;;
55186;SDS011;55457;52.002;5.464;2024-02-28T03:37:46;5.50;;;2.92;;
55186;SDS011;55457;52.002;5.464;2024-02-28T03:40:12;4.18;;;2.05;;
55186;SDS011;55457;52.002;5.464;2024-02-28T03:42:37;3.65;;;2.05;;
55186;SDS011;55457;52.002;5.464;2024-02-28T03:45:03;3.25;;;1.83;;
55186;SDS011;55457;52.002;5.464;2024-02-28T03:47:29;2.40;;;1.58;;
55186;SDS011;55457;52.002;5.464;2024-02-28T03:49:54;3.67;;;2.20;;
55186;SDS011;55457;52.002;5.464;2024-02-28T03:52:22;3.38;;;2.25;;
55186;SDS011;55457;52.002;5.464;2024-02-28T03:54:48;3.88;;;2.03;;
55186;SDS011;55457;52.002;5.464;2024-02-28T03:57:13;2.22;;;1.63;;
55186;SDS011;55457;52.002;5.464;2024-02-28T03:59:40;3.17;;;2.15;;
55186;SDS011;55457;52.002;5.464;2024-02-28T04:02:06;3.42;;;2.50;;
55186;SDS011;55457;52.002;5.464;2024-02-28T04:04:31;5.15;;;2.13;;
55186;SDS011;55457;52.002;5.464;2024-02-28T04:06:56;4.43;;;1.98;;
55186;SDS011;55457;52.002;5.464;2024-02-28T04:09:22;3.72;;;1.83;;
55186;SDS011;55457;52.002;5.464;2024-02-28T04:11:47;1.95;;;1.75;;
55186;SDS011;55457;52.002;5.464;2024-02-28T04:14:13;3.00;;;1.83;;
55186;SDS011;55457;52.002;5.464;2024-02-28T04:16:41;3.47;;;2.00;;
55186;SDS011;55457;52.002;5.464;2024-02-28T04:19:09;3.17;;;1.92;;
55186;SDS011;55457;52.002;5.464;2024-02-28T04:21:34;3.75;;;2.28;;
55186;SDS011;55457;52.002;5.464;2024-02-28T04:24:00;5.38;;;2.28;;
55186;SDS011;55457;52.002;5.464;2024-02-28T04:26:25;4.32;;;2.08;;
55186;SDS011;55457;52.002;5.464;2024-02-28T04:28:51;4.40;;;2.10;;
55186;SDS011;55457;52.002;5.464;2024-02-28T04:31:16;3.33;;;2.20;;
55186;SDS011;55457;52.002;5.464;2024-02-28T04:33:41;4.30;;;1.95;;
55186;SDS011;55457;52.002;5.464;2024-02-28T04:36:07;4.00;;;2.33;;
55186;SDS011;55457;52.002;5.464;2024-02-28T04:38:32;2.28;;;1.85;;
55186;SDS011;55457;52.002;5.464;2024-02-28T04:40:57;2.90;;;2.00;;
55186;SDS011;55457;52.002;5.464;2024-02-28T04:43:22;5.43;;;2.28;;
55186;SDS011;55457;52.002;5.464;2024-02-28T04:45:48;4.88;;;1.90;;
55186;SDS011;55457;52.002;5.464;2024-02-28T04:48:13;3.53;;;2.17;;
55186;SDS011;55457;52.002;5.464;2024-02-28T04:50:39;4.75;;;2.10;;
55186;SDS011;55457;52.002;5.464;2024-02-28T04:53:04;3.85;;;1.85;;
55186;SDS011;55457;52.002;5.464;2024-02-28T04:55:29;2.60;;;1.60;;
55186;SDS011;55457;52.002;5.464;2024-02-28T04:57:55;3.13;;;2.10;;
55186;SDS011;55457;52.002;5.464;2024-02-28T05:00:20;2.95;;;2.25;;
55186;SDS011;55457;52.002;5.464;2024-02-28T05:02:45;3.92;;;2.05;;
55186;SDS011;55457;52.002;5.464;2024-02-28T05:05:11;5.53;;;2.08;;
55186;SDS011;55457;52.002;5.464;2024-02-28T05:07:36;1.92;;;1.73;;
55186;SDS011;55457;52.002;5.464;2024-02-28T05:10:01;4.15;;;1.95;;
55186;SDS011;55457;52.002;5.464;2024-02-28T05:12:27;4.10;;;2.28;;
55186;SDS011;55457;52.002;5.464;2024-02-28T05:14:52;3.53;;;1.77;;
55186;SDS011;55457;52.002;5.464;2024-02-28T05:17:17;3.28;;;1.90;;
55186;SDS011;55457;52.002;5.464;2024-02-28T05:19:43;6.85;;;2.00;;
55186;SDS011;55457;52.002;5.464;2024-02-28T05:22:08;2.75;;;2.00;;
55186;SDS011;55457;52.002;5.464;2024-02-28T05:24:36;3.20;;;1.90;;
55186;SDS011;55457;52.002;5.464;2024-02-28T05:27:01;5.53;;;1.88;;
55186;SDS011;55457;52.002;5.464;2024-02-28T05:29:27;2.63;;;1.80;;
55186;SDS011;55457;52.002;5.464;2024-02-28T05:31:52;3.35;;;2.50;;
55186;SDS011;55457;52.002;5.464;2024-02-28T05:34:17;10.48;;;2.38;;
55186;SDS011;55457;52.002;5.464;2024-02-28T05:36:43;3.35;;;2.10;;
55186;SDS011;55457;52.002;5.464;2024-02-28T05:39:08;4.88;;;1.65;;
55186;SDS011;55457;52.002;5.464;2024-02-28T05:41:34;3.13;;;2.03;;
55186;SDS011;55457;52.002;5.464;2024-02-28T05:43:59;2.72;;;1.70;;
55186;SDS011;55457;52.002;5.464;2024-02-28T05:46:24;2.65;;;1.80;;
55186;SDS011;55457;52.002;5.464;2024-02-28T05:48:50;2.70;;;1.65;;
55186;SDS011;55457;52.002;5.464;2024-02-28T05:51:15;5.22;;;2.00;;
55186;SDS011;55457;52.002;5.464;2024-02-28T05:53:41;2.53;;;1.63;;
55186;SDS011;55457;52.002;5.464;2024-02-28T05:56:07;6.00;;;2.10;;
55186;SDS011;55457;52.002;5.464;2024-02-28T05:58:43;4.63;;;2.28;;
55186;SDS011;55457;52.002;5.464;2024-02-28T06:01:12;6.57;;;2.20;;
55186;SDS011;55457;52.002;5.464;2024-02-28T06:03:40;2.03;;;1.55;;
55186;SDS011;55457;52.002;5.464;2024-02-28T06:06:05;3.08;;;1.73;;
55186;SDS011;55457;52.002;5.464;2024-02-28T06:08:32;3.03;;;2.38;;
55186;SDS011;55457;52.002;5.464;2024-02-28T06:11:02;4.88;;;2.28;;
55186;SDS011;55457;52.002;5.464;2024-02-28T06:13:28;2.80;;;1.77;;
55186;SDS011;55457;52.002;5.464;2024-02-28T06:15:56;3.45;;;2.10;;
55186;SDS011;55457;52.002;5.464;2024-02-28T06:18:22;2.13;;;1.90;;
55186;SDS011;55457;52.002;5.464;2024-02-28T06:20:55;4.43;;;2.00;;
55186;SDS011;55457;52.002;5.464;2024-02-28T06:23:21;4.25;;;1.85;;
55186;SDS011;55457;52.002;5.464;2024-02-28T06:25:47;2.17;;;1.63;;
55186;SDS011;55457;52.002;5.464;2024-02-28T06:28:13;3.15;;;2.15;;
55186;SDS011;55457;52.002;5.464;2024-02-28T06:30:38;2.95;;;1.38;;
55186;SDS011;55457;52.002;5.464;2024-02-28T06:33:04;2.33;;;1.83;;
55186;SDS011;55457;52.002;5.464;2024-02-28T06:35:29;4.05;;;1.75;;
55186;SDS011;55457;52.002;5.464;2024-02-28T06:37:55;3.25;;;1.80;;
55186;SDS011;55457;52.002;5.464;2024-02-28T06:40:20;5.03;;;1.85;;
55186;SDS011;55457;52.002;5.464;2024-02-28T06:42:46;3.20;;;1.77;;
55186;SDS011;55457;52.002;5.464;2024-02-28T06:45:11;2.83;;;1.70;;
55186;SDS011;55457;52.002;5.464;2024-02-28T06:47:36;1.75;;;1.42;;
55186;SDS011;55457;52.002;5.464;2024-02-28T06:50:02;5.07;;;1.80;;
55186;SDS011;55457;52.002;5.464;2024-02-28T06:52:29;3.53;;;2.20;;
55186;SDS011;55457;52.002;5.464;2024-02-28T06:54:54;2.28;;;1.70;;
55186;SDS011;55457;52.002;5.464;2024-02-28T06:57:19;2.42;;;1.77;;
55186;SDS011;55457;52.002;5.464;2024-02-28T06:59:45;4.15;;;1.88;;
55186;SDS011;55457;52.002;5.464;2024-02-28T07:02:10;4.10;;;2.08;;
55186;SDS011;55457;52.002;5.464;2024-02-28T07:04:35;4.60;;;1.88;;
55186;SDS011;55457;52.002;5.464;2024-02-28T07:07:02;2.85;;;1.70;;
55186;SDS011;55457;52.002;5.464;2024-02-28T07:09:28;5.13;;;2.08;;
55186;SDS011;55457;52.002;5.464;2024-02-28T07:11:56;3.08;;;1.98;;
55186;SDS011;55457;52.002;5.464;2024-02-28T07:14:21;3.00;;;1.70;;
55186;SDS011;55457;52.002;5.464;2024-02-28T07:16:47;2.97;;;1.60;;
55186;SDS011;55457;52.002;5.464;2024-02-28T07:19:12;2.47;;;1.88;;
55186;SDS011;55457;52.002;5.464;2024-02-28T07:21:37;2.33;;;1.90;;
55186;SDS011;55457;52.002;5.464;2024-02-28T07:24:03;8.23;;;2.00;;
55186;SDS011;55457;52.002;5.464;2024-02-28T07:26:30;4.78;;;2.05;;
55186;SDS011;55457;52.002;5.464;2024-02-28T07:28:55;5.20;;;1.95;;
55186;SDS011;55457;52.002;5.464;2024-02-28T07:31:20;3.67;;;2.38;;
55186;SDS011;55457;52.002;5.464;2024-02-28T07:33:47;5.35;;;2.03;;
55186;SDS011;55457;52.002;5.464;2024-02-28T07:36:12;5.80;;;2.03;;
55186;SDS011;55457;52.002;5.464;2024-02-28T07:38:38;2.55;;;1.38;;
55186;SDS011;55457;52.002;5.464;2024-02-28T07:41:03;2.92;;;1.85;;
55186;SDS011;55457;52.002;5.464;2024-02-28T07:43:29;3.33;;;1.42;;
55186;SDS011;55457;52.002;5.464;2024-02-28T07:45:58;3.97;;;1.38;;
55186;SDS011;55457;52.002;5.464;2024-02-28T07:48:23;5.03;;;1.70;;
55186;SDS011;55457;52.002;5.464;2024-02-28T07:50:49;2.67;;;1.88;;
55186;SDS011;55457;52.002;5.464;2024-02-28T07:53:14;4.30;;;1.85;;
55186;SDS011;55457;52.002;5.464;2024-02-28T07:55:40;3.55;;;1.98;;
55186;SDS011;55457;52.002;5.464;2024-02-28T07:58:05;2.08;;;1.48;;
55186;SDS011;55457;52.002;5.464;2024-02-28T08:00:31;3.70;;;1.70;;
55186;SDS011;55457;52.002;5.464;2024-02-28T08:02:58;2.88;;;1.70;;
55186;SDS011;55457;52.002;5.464;2024-02-28T08:05:23;2.13;;;1.60;;
55186;SDS011;55457;52.002;5.464;2024-02-28T08:07:48;4.32;;;1.70;;
55186;SDS011;55457;52.002;5.464;2024-02-28T08:10:14;4.20;;;1.85;;
55186;SDS011;55457;52.002;5.464;2024-02-28T08:12:39;3.75;;;1.65;;
55186;SDS011;55457;52.002;5.464;2024-02-28T08:15:05;6.03;;;1.58;;
55186;SDS011;55457;52.002;5.464;2024-02-28T08:17:30;3.30;;;1.80;;
55186;SDS011;55457;52.002;5.464;2024-02-28T08:19:56;7.70;;;3.10;;
55186;SDS011;55457;52.002;5.464;2024-02-28T08:22:21;4.15;;;1.60;;
55186;SDS011;55457;52.002;5.464;2024-02-28T08:24:47;5.95;;;1.90;;
55186;SDS011;55457;52.002;5.464;2024-02-28T08:27:12;5.68;;;2.20;;
55186;SDS011;55457;52.002;5.464;2024-02-28T08:29:40;6.43;;;1.98;;
55186;SDS011;55457;52.002;5.464;2024-02-28T08:32:09;5.85;;;2.33;;
55186;SDS011;55457;52.002;5.464;2024-02-28T08:34:35;5.65;;;1.90;;
55186;SDS011;55457;52.002;5.464;2024-02-28T08:37:00;4.60;;;1.70;;
55186;SDS011;55457;52.002;5.464;2024-02-28T08:39:25;6.22;;;1.75;;
55186;SDS011;55457;52.002;5.464;2024-02-28T08:41:51;5.38;;;1.77;;
55186;SDS011;55457;52.002;5.464;2024-02-28T08:44:16;5.28;;;2.28;;
55186;SDS011;55457;52.002;5.464;2024-02-28T08:46:41;5.38;;;1.52;;
55186;SDS011;55457;52.002;5.464;2024-02-28T08:49:07;6.30;;;1.85;;
55186;SDS011;55457;52.002;5.464;2024-02-28T08:51:32;5.45;;;2.90;;
55186;SDS011;55457;52.002;5.464;2024-02-28T08:53:57;5.05;;;1.88;;
55186;SDS011;55457;52.002;5.464;2024-02-28T08:56:24;2.80;;;1.63;;
55186;SDS011;55457;52.002;5.464;2024-02-28T08:58:50;3.65;;;1.60;;
55186;SDS011;55457;52.002;5.464;2024-02-28T09:01:15;5.47;;;1.75;;
55186;SDS011;55457;52.002;5.464;2024-02-28T09:03:41;10.77;;;2.42;;
55186;SDS011;55457;52.002;5.464;2024-02-28T09:06:06;4.00;;;2.42;;
55186;SDS011;55457;52.002;5.464;2024-02-28T09:08:32;5.88;;;2.22;;
55186;SDS011;55457;52.002;5.464;2024-02-28T09:10:57;2.92;;;1.70;;
55186;SDS011;55457;52.002;5.464;2024-02-28T09:13:23;3.50;;;1.60;;
55186;SDS011;55457;52.002;5.464;2024-02-28T09:15:48;2.58;;;2.00;;
55186;SDS011;55457;52.002;5.464;2024-02-28T09:18:13;10.65;;;2.55;;
55186;SDS011;55457;52.002;5.464;2024-02-28T09:20:39;4.63;;;2.08;;
55186;SDS011;55457;52.002;5.464;2024-02-28T09:23:04;5.47;;;2.33;;
55186;SDS011;55457;52.002;5.464;2024-02-28T09:25:31;5.15;;;1.90;;
55186;SDS011;55457;52.002;5.464;2024-02-28T09:27:57;5.25;;;2.35;;
55186;SDS011;55457;52.002;5.464;2024-02-28T09:30:25;5.65;;;2.05;;
55186;SDS011;55457;52.002;5.464;2024-02-28T09:32:50;6.95;;;2.38;;
55186;SDS011;55457;52.002;5.464;2024-02-28T09:35:15;5.30;;;1.77;;
55186;SDS011;55457;52.002;5.464;2024-02-28T09:37:41;8.05;;;2.17;;
55186;SDS011;55457;52.002;5.464;2024-02-28T09:40:08;5.82;;;2.38;;
55186;SDS011;55457;52.002;5.464;2024-02-28T09:42:35;6.72;;;2.55;;
55186;SDS011;55457;52.002;5.464;2024-02-28T09:45:02;4.78;;;2.42;;
55186;SDS011;55457;52.002;5.464;2024-02-28T09:47:28;7.65;;;2.55;;
55186;SDS011;55457;52.002;5.464;2024-02-28T09:49:54;14.52;;;3.00;;
55186;SDS011;55457;52.002;5.464;2024-02-28T09:52:23;10.57;;;2.80;;
55186;SDS011;55457;52.002;5.464;2024-02-28T09:54:49;9.93;;;3.50;;
55186;SDS011;55457;52.002;5.464;2024-02-28T09:57:15;12.82;;;3.63;;
55186;SDS011;55457;52.002;5.464;2024-02-28T09:59:41;9.70;;;2.85;;
55186;SDS011;55457;52.002;5.464;2024-02-28T10:02:07;9.02;;;3.20;;
55186;SDS011;55457;52.002;5.464;2024-02-28T10:04:36;10.95;;;2.72;;
55186;SDS011;55457;52.002;5.464;2024-02-28T10:07:11;12.20;;;3.08;;
55186;SDS011;55457;52.002;5.464;2024-02-28T10:09:38;14.00;;;3.42;;
55186;SDS011;55457;52.002;5.464;2024-02-28T10:12:03;13.65;;;2.80;;
55186;SDS011;55457;52.002;5.464;2024-02-28T10:14:29;13.05;;;3.20;;
55186;SDS011;55457;52.002;5.464;2024-02-28T10:16:55;13.25;;;3.25;;
55186;SDS011;55457;52.002;5.464;2024-02-28T10:19:20;11.50;;;3.17;;
55186;SDS011;55457;52.002;5.464;2024-02-28T10:21:46;13.48;;;3.63;;
55186;SDS011;55457;52.002;5.464;2024-02-28T10:24:12;11.13;;;3.60;;
55186;SDS011;55457;52.002;5.464;2024-02-28T10:26:41;13.05;;;3.03;;
55186;SDS011;55457;52.002;5.464;2024-02-28T10:29:08;14.00;;;2.80;;
55186;SDS011;55457;52.002;5.464;2024-02-28T10:31:33;13.20;;;3.63;;
55186;SDS011;55457;52.002;5.464;2024-02-28T10:33:59;16.85;;;2.75;;
55186;SDS011;55457;52.002;5.464;2024-02-28T10:36:26;16.38;;;2.90;;
55186;SDS011;55457;52.002;5.464;2024-02-28T10:38:56;9.73;;;3.13;;
55186;SDS011;55457;52.002;5.464;2024-02-28T10:41:23;10.60;;;3.20;;
55186;SDS011;55457;52.002;5.464;2024-02-28T10:43:50;8.55;;;3.03;;
55186;SDS011;55457;52.002;5.464;2024-02-28T10:46:18;10.82;;;2.53;;
55186;SDS011;55457;52.002;5.464;2024-02-28T10:48:45;12.27;;;3.38;;
55186;SDS011;55457;52.002;5.464;2024-02-28T10:51:10;5.72;;;2.20;;
55186;SDS011;55457;52.002;5.464;2024-02-28T10:53:41;13.15;;;2.83;;
55186;SDS011;55457;52.002;5.464;2024-02-28T10:56:08;6.57;;;1.88;;
55186;SDS011;55457;52.002;5.464;2024-02-28T10:58:36;10.15;;;2.97;;
55186;SDS011;55457;52.002;5.464;2024-02-28T11:01:05;6.07;;;2.55;;
55186;SDS011;55457;52.002;5.464;2024-02-28T11:03:31;5.88;;;2.50;;
55186;SDS011;55457;52.002;5.464;2024-02-28T11:05:56;6.40;;;2.58;;
55186;SDS011;55457;52.002;5.464;2024-02-28T11:08:23;7.50;;;2.33;;
55186;SDS011;55457;52.002;5.464;2024-02-28T11:11:02;9.18;;;2.78;;
55186;SDS011;55457;52.002;5.464;2024-02-28T11:13:29;9.77;;;3.20;;
55186;SDS011;55457;52.002;5.464;2024-02-28T11:16:06;9.68;;;2.85;;
55186;SDS011;55457;52.002;5.464;2024-02-28T11:18:32;9.23;;;3.05;;
55186;SDS011;55457;52.002;5.464;2024-02-28T11:20:57;8.85;;;2.60;;
55186;SDS011;55457;52.002;5.464;2024-02-28T11:23:23;9.52;;;3.05;;
55186;SDS011;55457;52.002;5.464;2024-02-28T11:25:49;8.57;;;2.17;;
55186;SDS011;55457;52.002;5.464;2024-02-28T11:28:14;8.40;;;3.35;;
55186;SDS011;55457;52.002;5.464;2024-02-28T11:30:41;8.27;;;3.03;;
55186;SDS011;55457;52.002;5.464;2024-02-28T11:33:06;9.48;;;2.28;;
55186;SDS011;55457;52.002;5.464;2024-02-28T11:35:34;8.23;;;2.70;;
55186;SDS011;55457;52.002;5.464;2024-02-28T11:37:59;9.02;;;2.85;;
55186;SDS011;55457;52.002;5.464;2024-02-28T11:40:25;7.40;;;2.92;;
55186;SDS011;55457;52.002;5.464;2024-02-28T11:42:51;6.30;;;2.38;;
55186;SDS011;55457;52.002;5.464;2024-02-28T11:45:17;9.07;;;2.53;;
55186;SDS011;55457;52.002;5.464;2024-02-28T11:47:43;7.60;;;2.40;;
55186;SDS011;55457;52.002;5.464;2024-02-28T11:50:09;10.20;;;2.78;;
55186;SDS011;55457;52.002;5.464;2024-02-28T11:52:34;5.80;;;2.83;;
55186;SDS011;55457;52.002;5.464;2024-02-28T11:55:00;5.95;;;2.47;;
55186;SDS011;55457;52.002;5.464;2024-02-28T11:57:25;7.65;;;2.60;;
55186;SDS011;55457;52.002;5.464;2024-02-28T11:59:51;8.55;;;2.90;;
55186;SDS011;55457;52.002;5.464;2024-02-28T12:02:17;4.57;;;2.50;;
55186;SDS011;55457;52.002;5.464;2024-02-28T12:04:43;7.18;;;3.13;;
55186;SDS011;55457;52.002;5.464;2024-02-28T12:07:09;8.43;;;2.47;;
55186;SDS011;55457;52.002;5.464;2024-02-28T12:09:34;4.93;;;2.25;;
55186;SDS011;55457;52.002;5.464;2024-02-28T12:12:00;6.55;;;2.67;;
55186;SDS011;55457;52.002;5.464;2024-02-28T12:14:26;4.95;;;2.40;;
55186;SDS011;55457;52.002;5.464;2024-02-28T12:16:52;4.47;;;2.15;;
55186;SDS011;55457;52.002;5.464;2024-02-28T12:19:17;5.10;;;2.88;;
55186;SDS011;55457;52.002;5.464;2024-02-28T12:21:45;7.45;;;2.42;;
55186;SDS011;55457;52.002;5.464;2024-02-28T12:24:10;4.85;;;2.83;;
55186;SDS011;55457;52.002;5.464;2024-02-28T12:26:36;4.53;;;2.75;;
55186;SDS011;55457;52.002;5.464;2024-02-28T12:29:02;5.88;;;2.22;;
55186;SDS011;55457;52.002;5.464;2024-02-28T12:31:28;7.20;;;2.28;;
55186;SDS011;55457;52.002;5.464;2024-02-28T12:33:53;5.38;;;2.50;;
55186;SDS011;55457;52.002;5.464;2024-02-28T12:36:19;5.57;;;2.17;;
55186;SDS011;55457;52.002;5.464;2024-02-28T12:38:45;6.78;;;2.38;;
55186;SDS011;55457;52.002;5.464;2024-02-28T12:41:11;4.93;;;2.28;;
55186;SDS011;55457;52.002;5.464;2024-02-28T12:43:36;5.72;;;2.90;;
55186;SDS011;55457;52.002;5.464;2024-02-28T12:46:01;4.72;;;2.25;;
55186;SDS011;55457;52.002;5.464;2024-02-28T12:48:27;5.15;;;2.60;;
55186;SDS011;55457;52.002;5.464;2024-02-28T12:50:53;3.63;;;2.50;;
55186;SDS011;55457;52.002;5.464;2024-02-28T12:53:18;5.15;;;2.65;;
55186;SDS011;55457;52.002;5.464;2024-02-28T12:55:43;6.63;;;2.50;;
55186;SDS011;55457;52.002;5.464;2024-02-28T12:58:10;5.47;;;2.10;;
55186;SDS011;55457;52.002;5.464;2024-02-28T13:00:35;6.53;;;1.98;;
55186;SDS011;55457;52.002;5.464;2024-02-28T13:03:01;5.28;;;2.75;;
55186;SDS011;55457;52.002;5.464;2024-02-28T13:05:28;6.03;;;2.50;;
55186;SDS011;55457;52.002;5.464;2024-02-28T13:07:54;4.60;;;2.63;;
55186;SDS011;55457;52.002;5.464;2024-02-28T13:10:19;4.07;;;2.08;;
55186;SDS011;55457;52.002;5.464;2024-02-28T13:12:46;7.47;;;2.10;;
55186;SDS011;55457;52.002;5.464;2024-02-28T13:15:12;3.60;;;2.03;;
55186;SDS011;55457;52.002;5.464;2024-02-28T13:17:37;4.78;;;2.00;;
55186;SDS011;55457;52.002;5.464;2024-02-28T13:20:03;3.40;;;1.92;;
55186;SDS011;55457;52.002;5.464;2024-02-28T13:22:28;5.53;;;1.90;;
55186;SDS011;55457;52.002;5.464;2024-02-28T13:24:54;5.10;;;2.40;;
55186;SDS011;55457;52.002;5.464;2024-02-28T13:27:19;5.75;;;2.15;;
55186;SDS011;55457;52.002;5.464;2024-02-28T13:29:45;11.77;;;2.78;;
55186;SDS011;55457;52.002;5.464;2024-02-28T13:32:10;4.20;;;2.20;;
55186;SDS011;55457;52.002;5.464;2024-02-28T13:34:35;4.65;;;2.50;;
55186;SDS011;55457;52.002;5.464;2024-02-28T13:37:01;6.28;;;2.20;;
55186;SDS011;55457;52.002;5.464;2024-02-28T13:39:26;6.90;;;2.40;;
55186;SDS011;55457;52.002;5.464;2024-02-28T13:41:52;4.90;;;2.45;;
55186;SDS011;55457;52.002;5.464;2024-02-28T13:44:18;7.60;;;2.85;;
55186;SDS011;55457;52.002;5.464;2024-02-28T13:46:46;7.88;;;2.55;;
55186;SDS011;55457;52.002;5.464;2024-02-28T13:49:13;8.90;;;2.92;;
55186;SDS011;55457;52.002;5.464;2024-02-28T13:51:42;10.60;;;3.40;;
55186;SDS011;55457;52.002;5.464;2024-02-28T13:54:07;14.70;;;3.83;;
55186;SDS011;55457;52.002;5.464;2024-02-28T13:56:33;9.15;;;4.30;;
55186;SDS011;55457;52.002;5.464;2024-02-28T13:58:59;17.85;;;4.22;;
55186;SDS011;55457;52.002;5.464;2024-02-28T14:01:24;20.42;;;3.33;;
55186;SDS011;55457;52.002;5.464;2024-02-28T14:03:49;13.93;;;3.65;;
55186;SDS011;55457;52.002;5.464;2024-02-28T14:06:15;14.65;;;3.83;;
55186;SDS011;55457;52.002;5.464;2024-02-28T14:08:40;24.25;;;4.28;;
55186;SDS011;55457;52.002;5.464;2024-02-28T14:11:05;16.38;;;4.60;;
55186;SDS011;55457;52.002;5.464;2024-02-28T14:13:31;12.48;;;3.67;;
55186;SDS011;55457;52.002;5.464;2024-02-28T14:15:56;10.45;;;4.30;;
55186;SDS011;55457;52.002;5.464;2024-02-28T14:18:22;13.82;;;3.63;;
55186;SDS011;55457;52.002;5.464;2024-02-28T14:20:47;11.30;;;3.80;;
55186;SDS011;55457;52.002;5.464;2024-02-28T14:23:12;11.20;;;3.90;;
55186;SDS011;55457;52.002;5.464;2024-02-28T14:25:38;6.95;;;3.20;;
55186;SDS011;55457;52.002;5.464;2024-02-28T14:28:03;10.13;;;3.35;;
55186;SDS011;55457;52.002;5.464;2024-02-28T14:30:29;12.63;;;3.65;;
55186;SDS011;55457;52.002;5.464;2024-02-28T14:32:55;10.00;;;3.28;;
55186;SDS011;55457;52.002;5.464;2024-02-28T14:35:20;12.70;;;4.13;;
55186;SDS011;55457;52.002;5.464;2024-02-28T14:37:45;10.93;;;4.00;;